createdAt,value
2022-09-07T00:00:57.098Z,21.17
2022-09-07T00:03:24.630Z,21.19
2022-09-07T00:05:52.741Z,21.15
2022-09-07T00:08:24.011Z,21.13
2022-09-07T00:11:04.006Z,21.12
2022-09-07T00:13:34.514Z,21.11
2022-09-07T00:16:08.728Z,21.11
2022-09-07T00:18:36.092Z,21.14
2022-09-07T00:21:07.653Z,21.13
2022-09-07T00:23:37.344Z,21.08
2022-09-07T00:26:08.364Z,21.07
2022-09-07T00:28:37.080Z,21.03
2022-09-07T00:31:09.104Z,21.07
2022-09-07T00:33:36.134Z,21.04
2022-09-07T00:36:03.832Z,21.01
2022-09-07T00:38:31.303Z,20.95
2022-09-07T00:40:58.427Z,20.91
2022-09-07T00:43:39.263Z,20.89
2022-09-07T00:46:28.997Z,20.89
2022-09-07T00:49:05.714Z,20.87
2022-09-07T00:51:50.862Z,20.83
2022-09-07T00:54:25.228Z,20.80
2022-09-07T00:56:53.689Z,20.82
2022-09-07T00:59:26.842Z,20.80
2022-09-07T01:01:54.340Z,20.79
2022-09-07T01:04:23.235Z,20.74
2022-09-07T01:06:50.885Z,20.72
2022-09-07T01:09:22.947Z,20.75
2022-09-07T01:11:52.403Z,20.72
2022-09-07T01:14:25.260Z,20.66
2022-09-07T01:17:07.897Z,20.65
2022-09-07T01:20:08.568Z,20.66
2022-09-07T01:23:06.079Z,20.64
2022-09-07T01:25:55.594Z,20.62
2022-09-07T01:28:35.453Z,20.60
2022-09-07T01:31:20.401Z,20.62
2022-09-07T01:34:12.039Z,20.60
2022-09-07T01:37:15.370Z,20.58
2022-09-07T01:40:22.522Z,20.54
2022-09-07T01:43:02.434Z,20.49
2022-09-07T01:45:35.730Z,20.48
2022-09-07T01:48:09.089Z,20.50
2022-09-07T01:50:51.808Z,20.50
2022-09-07T01:53:44.515Z,20.51
2022-09-07T01:56:27.613Z,20.48
2022-09-07T01:59:07.757Z,20.44
2022-09-07T02:02:07.657Z,20.35
2022-09-07T02:04:56.984Z,20.35
2022-09-07T02:07:48.022Z,20.32
2022-09-07T02:10:28.575Z,20.29
2022-09-07T02:13:07.089Z,20.25
2022-09-07T02:16:01.534Z,20.20
2022-09-07T02:18:37.368Z,20.17
2022-09-07T02:21:07.802Z,20.15
2022-09-07T02:23:55.497Z,20.15
2022-09-07T02:26:25.979Z,20.12
2022-09-07T02:28:53.100Z,20.18
2022-09-07T02:31:20.427Z,20.20
2022-09-07T02:33:47.727Z,20.20
2022-09-07T02:36:18.199Z,20.18
2022-09-07T02:38:45.342Z,20.21
2022-09-07T02:41:32.430Z,20.21
2022-09-07T02:44:01.368Z,20.18
2022-09-07T02:46:34.229Z,20.21
2022-09-07T02:49:32.223Z,20.14
2022-09-07T02:52:40.750Z,20.14
2022-09-07T02:55:10.993Z,20.17
2022-09-07T02:58:05.120Z,20.18
2022-09-07T03:00:40.974Z,20.16
2022-09-07T03:03:49.958Z,20.05
2022-09-07T03:06:31.852Z,20.01
2022-09-07T03:09:05.445Z,20.02
2022-09-07T03:11:35.714Z,19.98
2022-09-07T03:14:18.087Z,19.99
2022-09-07T03:16:46.782Z,19.99
2022-09-07T03:19:13.773Z,19.88
2022-09-07T03:21:40.959Z,19.92
2022-09-07T03:24:08.365Z,19.86
2022-09-07T03:26:44.541Z,19.85
2022-09-07T03:29:11.792Z,19.87
2022-09-07T03:31:38.801Z,19.84
2022-09-07T03:34:07.276Z,19.85
2022-09-07T03:36:35.163Z,19.84
2022-09-07T03:39:03.170Z,19.80
2022-09-07T03:41:30.355Z,19.78
2022-09-07T03:43:57.380Z,19.78
2022-09-07T03:46:24.542Z,19.79
2022-09-07T03:48:51.695Z,19.72
2022-09-07T03:51:20.258Z,19.78
2022-09-07T03:53:48.065Z,19.74
2022-09-07T03:56:19.550Z,19.77
2022-09-07T03:58:48.669Z,19.80
2022-09-07T04:01:19.809Z,19.78
2022-09-07T04:03:48.244Z,19.77
2022-09-07T04:06:16.584Z,19.78
2022-09-07T04:08:44.321Z,19.75
2022-09-07T04:11:17.670Z,19.73
2022-09-07T04:13:46.868Z,19.75
2022-09-07T04:16:20.945Z,19.76
2022-09-07T04:18:51.815Z,19.74
2022-09-07T04:21:19.223Z,19.72
2022-09-07T04:23:46.700Z,19.71
2022-09-07T04:26:14.968Z,19.71
2022-09-07T04:28:42.045Z,19.71
2022-09-07T04:31:09.341Z,19.71
2022-09-07T04:33:36.606Z,19.72
2022-09-07T04:36:04.761Z,19.75
2022-09-07T04:38:32.948Z,19.73
2022-09-07T04:41:08.447Z,19.68
2022-09-07T04:43:38.868Z,19.66
2022-09-07T04:46:23.980Z,19.66
2022-09-07T04:48:54.277Z,19.56
2022-09-07T04:51:24.126Z,19.57
2022-09-07T04:53:54.558Z,19.57
2022-09-07T04:56:23.624Z,19.59
2022-09-07T04:58:50.809Z,19.54
2022-09-07T05:01:22.087Z,19.51
2022-09-07T05:03:50.246Z,19.49
2022-09-07T05:06:19.915Z,19.45
2022-09-07T05:08:51.559Z,19.47
2022-09-07T05:11:23.851Z,19.45
2022-09-07T05:13:55.559Z,19.46
2022-09-07T05:16:24.503Z,19.45
2022-09-07T05:18:57.926Z,19.44
2022-09-07T05:21:28.779Z,19.41
2022-09-07T05:23:58.107Z,19.37
2022-09-07T05:26:29.317Z,19.36
2022-09-07T05:31:43.410Z,19.34
2022-09-07T05:36:58.040Z,22.73
2022-09-07T05:39:25.353Z,23.32
2022-09-07T05:41:52.700Z,23.76
2022-09-07T05:47:07.227Z,24.32
2022-09-07T05:49:34.664Z,24.50
2022-09-07T05:52:01.829Z,24.69
2022-09-07T05:54:28.827Z,24.81
2022-09-07T05:56:55.861Z,24.93
2022-09-07T05:59:22.902Z,25.04
2022-09-07T06:01:50.008Z,25.12
2022-09-07T06:04:17.273Z,25.20
2022-09-07T06:06:59.124Z,25.25
2022-09-07T06:09:31.547Z,25.29
2022-09-07T06:11:58.629Z,25.37
2022-09-07T06:14:25.667Z,25.42
2022-09-07T06:16:53.785Z,25.46
2022-09-07T06:19:21.089Z,25.51
2022-09-07T06:21:48.232Z,25.54
2022-09-07T06:24:15.350Z,25.57
2022-09-07T06:26:42.480Z,25.57
2022-09-07T06:29:12.324Z,25.64
2022-09-07T06:34:26.454Z,25.69
2022-09-07T06:36:53.581Z,25.72
2022-09-07T06:39:20.612Z,25.75
2022-09-07T06:42:03.090Z,25.76
2022-09-07T06:44:31.132Z,25.78
2022-09-07T06:49:28.363Z,25.80
2022-09-07T06:51:55.594Z,25.84
2022-09-07T06:57:09.984Z,25.85
2022-09-07T06:59:38.219Z,25.86
2022-09-07T07:02:07.110Z,25.87
2022-09-07T07:04:39.754Z,25.88
2022-09-07T07:07:14.089Z,25.92
2022-09-07T07:09:41.968Z,25.92
2022-09-07T07:12:10.733Z,25.93
2022-09-07T07:14:40.995Z,25.97
2022-09-07T07:17:10.347Z,25.98
2022-09-07T07:19:37.493Z,25.98
2022-09-07T07:22:43.015Z,25.99
2022-09-07T07:24:51.510Z,25.99
2022-09-07T07:27:18.571Z,26.00
2022-09-07T07:29:46.144Z,26.01
2022-09-07T07:32:13.247Z,26.01
2022-09-07T07:34:40.188Z,26.04
2022-09-07T07:37:07.173Z,26.03
2022-09-07T07:42:21.689Z,26.03
2022-09-07T07:44:48.818Z,26.03
2022-09-07T07:47:15.875Z,26.04
2022-09-07T07:49:42.945Z,26.04
2022-09-07T07:54:56.974Z,26.07
2022-09-07T07:57:24.077Z,26.09
2022-09-07T07:59:51.082Z,26.11
2022-09-07T08:02:18.134Z,26.08
2022-09-07T08:04:45.227Z,26.09
2022-09-07T08:07:12.535Z,26.10
2022-09-07T08:09:45.104Z,26.13
2022-09-07T08:12:19.499Z,26.12
2022-09-07T08:14:49.471Z,26.14
2022-09-07T08:17:17.712Z,26.15
2022-09-07T08:19:45.054Z,26.11
2022-09-07T08:22:13.020Z,26.10
2022-09-07T08:24:40.065Z,26.14
2022-09-07T08:27:07.532Z,26.13
2022-09-07T08:29:35.578Z,26.10
2022-09-07T08:32:06.575Z,26.12
2022-09-07T08:34:36.667Z,26.15
2022-09-07T08:37:04.114Z,26.14
2022-09-07T08:39:31.303Z,26.13
2022-09-07T08:42:22.057Z,26.13
2022-09-07T08:45:30.151Z,26.17
2022-09-07T08:47:58.202Z,26.16
2022-09-07T08:50:45.795Z,26.12
2022-09-07T08:53:16.655Z,26.16
2022-09-07T08:55:54.903Z,26.19
2022-09-07T08:59:03.036Z,26.25
2022-09-07T09:01:41.610Z,26.23
2022-09-07T09:04:26.870Z,26.21
2022-09-07T09:07:45.069Z,26.15
2022-09-07T09:10:41.592Z,26.15
2022-09-07T09:13:44.998Z,26.18
2022-09-07T09:16:34.770Z,26.19
2022-09-07T09:19:30.953Z,26.21
2022-09-07T09:22:13.777Z,26.19
2022-09-07T09:25:04.007Z,26.18
2022-09-07T09:27:30.970Z,26.24
2022-09-07T09:29:58.002Z,26.25
2022-09-07T09:32:37.690Z,26.18
2022-09-07T09:35:38.028Z,26.23
2022-09-07T09:38:05.424Z,26.24
2022-09-07T09:40:37.175Z,26.31
2022-09-07T09:43:18.451Z,26.31
2022-09-07T09:48:42.672Z,26.24
2022-09-07T09:54:39.260Z,26.41
2022-09-07T09:57:06.315Z,26.36
2022-09-07T10:05:24.671Z,26.37
2022-09-07T10:07:53.730Z,26.33
2022-09-07T10:10:21.205Z,26.32
2022-09-07T10:12:52.256Z,26.30
2022-09-07T10:15:50.217Z,26.26
2022-09-07T10:18:36.409Z,26.32
2022-09-07T10:21:27.956Z,26.33
2022-09-07T10:24:00.700Z,26.31
2022-09-07T10:26:34.810Z,26.33
2022-09-07T10:29:15.153Z,26.31
2022-09-07T10:32:09.585Z,26.44
2022-09-07T10:34:54.995Z,26.43
2022-09-07T10:37:37.755Z,26.39
2022-09-07T10:40:28.412Z,26.34
2022-09-07T10:43:41.185Z,26.36
2022-09-07T10:46:58.386Z,26.35
2022-09-07T10:50:22.985Z,26.32
2022-09-07T10:53:47.173Z,26.37
2022-09-07T10:56:22.163Z,26.39
2022-09-07T10:59:24.243Z,26.42
2022-09-07T11:01:57.670Z,26.41
2022-09-07T11:05:07.350Z,26.43
2022-09-07T11:08:00.495Z,26.40
2022-09-07T11:11:10.690Z,26.41
2022-09-07T11:14:02.067Z,26.43
2022-09-07T11:16:51.693Z,26.41
2022-09-07T11:20:01.588Z,26.42
2022-09-07T11:22:41.685Z,26.46
2022-09-07T11:25:30.595Z,26.54
2022-09-07T11:28:25.728Z,26.56
2022-09-07T11:31:02.725Z,26.53
2022-09-07T11:34:23.636Z,26.53
2022-09-07T11:36:44.395Z,26.55
2022-09-07T11:39:35.801Z,26.58
2022-09-07T11:42:44.606Z,26.55
2022-09-07T11:45:25.628Z,26.62
2022-09-07T11:48:07.739Z,26.66
2022-09-07T11:50:42.916Z,26.61
2022-09-07T11:53:20.272Z,26.59
2022-09-07T11:55:54.890Z,26.64
2022-09-07T11:58:56.278Z,26.69
2022-09-07T12:01:38.128Z,26.67
2022-09-07T12:04:23.608Z,26.73
2022-09-07T12:07:14.692Z,26.70
2022-09-07T12:10:34.392Z,26.71
2022-09-07T12:13:18.875Z,26.72
2022-09-07T12:16:28.676Z,26.74
2022-09-07T12:19:21.491Z,26.76
2022-09-07T12:21:51.376Z,26.72
2022-09-07T12:24:37.248Z,26.75
2022-09-07T12:27:20.816Z,26.79
2022-09-07T12:29:57.119Z,26.81
2022-09-07T12:33:05.920Z,26.82
2022-09-07T12:35:39.688Z,26.78
2022-09-07T12:38:18.411Z,26.74
2022-09-07T12:41:20.782Z,26.77
2022-09-07T12:43:50.444Z,26.88
2022-09-07T12:46:35.041Z,26.89
2022-09-07T12:49:20.661Z,26.82
2022-09-07T12:52:33.561Z,26.81
2022-09-07T12:55:28.382Z,26.80
2022-09-07T12:58:09.288Z,26.83
2022-09-07T13:01:13.318Z,27.14
2022-09-07T13:04:17.187Z,27.01
2022-09-07T13:07:12.928Z,26.91
2022-09-07T13:09:41.516Z,26.84
2022-09-07T13:15:46.197Z,26.97
2022-09-07T13:18:36.083Z,26.93
2022-09-07T13:21:08.803Z,26.89
2022-09-07T13:23:41.259Z,26.88
2022-09-07T13:27:08.029Z,26.89
2022-09-07T13:30:01.952Z,26.86
2022-09-07T13:35:27.316Z,26.92
2022-09-07T13:38:01.753Z,26.97
2022-09-07T13:40:39.567Z,26.95
2022-09-07T13:43:13.838Z,26.97
2022-09-07T13:45:55.796Z,26.95
2022-09-07T13:48:52.016Z,27.18
2022-09-07T13:51:35.477Z,27.37
2022-09-07T13:54:35.802Z,27.41
2022-09-07T13:57:28.618Z,27.35
2022-09-07T13:59:57.017Z,27.22
2022-09-07T14:02:33.844Z,27.17
2022-09-07T14:05:01.981Z,27.09
2022-09-07T14:07:31.043Z,27.08
2022-09-07T14:10:20.267Z,27.07
2022-09-07T14:12:54.534Z,27.07
2022-09-07T14:15:27.775Z,27.06
2022-09-07T14:18:11.660Z,27.06
2022-09-07T14:20:45.419Z,27.19
2022-09-07T14:23:31.500Z,27.33
2022-09-07T14:26:19.369Z,27.42
2022-09-07T14:28:51.723Z,27.35
2022-09-07T14:31:21.232Z,27.26
2022-09-07T14:34:00.429Z,27.16
2022-09-07T14:36:46.502Z,27.10
2022-09-07T14:39:17.215Z,27.07
2022-09-07T14:41:45.197Z,27.09
2022-09-07T14:44:28.278Z,27.02
2022-09-07T14:46:57.204Z,27.06
2022-09-07T14:49:26.496Z,27.09
2022-09-07T14:51:54.749Z,27.10
2022-09-07T14:54:34.057Z,27.08
2022-09-07T14:57:11.073Z,27.09
2022-09-07T14:59:48.515Z,27.11
2022-09-07T15:02:18.632Z,28.82
2022-09-07T15:04:47.228Z,29.35
2022-09-07T15:07:39.746Z,29.39
2022-09-07T15:10:23.115Z,29.13
2022-09-07T15:12:59.555Z,29.12
2022-09-07T15:15:34.338Z,29.02
2022-09-07T15:18:25.423Z,29.01
2022-09-07T15:20:52.988Z,29.04
2022-09-07T15:23:20.310Z,28.88
2022-09-07T15:25:53.670Z,28.77
2022-09-07T15:34:16.040Z,28.54
2022-09-07T15:36:48.784Z,28.71
2022-09-07T15:39:30.243Z,28.73
2022-09-07T15:42:00.455Z,28.71
2022-09-07T15:44:45.044Z,28.66
2022-09-07T15:49:59.410Z,28.69
2022-09-07T15:52:26.461Z,28.85
2022-09-07T15:54:54.033Z,28.89
2022-09-07T16:00:09.198Z,29.02
2022-09-07T16:05:30.763Z,28.57
2022-09-07T16:10:53.589Z,28.26
2022-09-07T16:13:23.918Z,28.16
2022-09-07T16:15:51.382Z,28.34
2022-09-07T16:18:18.905Z,28.57
2022-09-07T16:20:47.377Z,28.70
2022-09-07T16:23:16.998Z,28.73
2022-09-07T16:26:00.801Z,28.78
2022-09-07T16:28:29.431Z,28.74
2022-09-07T16:30:56.822Z,28.59
2022-09-07T16:33:32.728Z,28.41
2022-09-07T16:36:03.822Z,28.16
2022-09-07T16:38:47.605Z,28.03
2022-09-07T16:41:24.406Z,27.86
2022-09-07T16:43:51.461Z,27.71
2022-09-07T16:46:22.088Z,27.65
2022-09-07T16:48:51.223Z,27.63
2022-09-07T16:51:21.344Z,27.53
2022-09-07T16:53:50.658Z,27.40
2022-09-07T16:56:21.341Z,27.40
2022-09-07T16:58:51.900Z,27.36
2022-09-07T17:01:23.654Z,27.31
2022-09-07T17:03:51.293Z,27.24
2022-09-07T17:06:21.274Z,27.19
2022-09-07T17:08:48.612Z,27.12
2022-09-07T17:11:20.894Z,27.05
2022-09-07T17:13:49.249Z,26.97
2022-09-07T17:16:26.289Z,26.88
2022-09-07T17:21:41.848Z,26.62
2022-09-07T17:24:11.147Z,26.54
2022-09-07T17:26:42.733Z,26.48
2022-09-07T17:29:10.473Z,26.39
2022-09-07T17:34:26.378Z,26.16
2022-09-07T17:36:53.352Z,26.11
2022-09-07T17:39:20.527Z,26.15
2022-09-07T17:41:49.600Z,26.04
2022-09-07T17:44:17.676Z,26.00
2022-09-07T17:46:44.895Z,25.93
2022-09-07T17:49:14.067Z,25.86
2022-09-07T17:51:41.447Z,25.80
2022-09-07T17:54:16.663Z,25.73
2022-09-07T17:56:45.013Z,25.58
2022-09-07T18:02:00.958Z,25.55
2022-09-07T18:04:28.877Z,25.55
2022-09-07T18:06:56.352Z,25.48
2022-09-07T18:09:23.447Z,25.40
2022-09-07T18:11:51.095Z,25.36
2022-09-07T18:14:19.113Z,25.30
2022-09-07T18:16:49.364Z,25.24
2022-09-07T18:19:17.870Z,25.20
2022-09-07T18:21:45.637Z,25.14
2022-09-07T18:24:19.521Z,25.08
2022-09-07T18:26:51.050Z,25.03
2022-09-07T18:29:29.544Z,24.99
2022-09-07T18:31:59.553Z,24.93
2022-09-07T18:34:28.553Z,24.92
2022-09-07T18:36:55.805Z,24.92
2022-09-07T18:39:22.851Z,24.87
2022-09-07T18:41:49.873Z,24.79
2022-09-07T18:47:05.429Z,24.67
2022-09-07T18:49:32.660Z,24.56
2022-09-07T18:54:47.169Z,24.56
2022-09-07T18:57:15.491Z,24.56
2022-09-07T18:59:42.528Z,24.63
2022-09-07T19:02:10.702Z,24.55
2022-09-07T19:07:29.659Z,24.44
2022-09-07T19:09:57.247Z,24.41
2022-09-07T19:12:24.446Z,24.29
2022-09-07T19:14:51.704Z,24.22
2022-09-07T19:17:19.566Z,24.19
2022-09-07T19:19:46.838Z,24.16
2022-09-07T19:22:13.868Z,24.06
2022-09-07T19:24:40.857Z,24.03
2022-09-07T19:27:07.796Z,24.01
2022-09-07T19:29:34.789Z,23.96
2022-09-07T19:32:04.583Z,23.92
2022-09-07T19:34:36.141Z,23.86
2022-09-07T19:37:04.785Z,23.80
2022-09-07T19:39:32.068Z,23.76
2022-09-07T19:41:59.588Z,23.80
2022-09-07T19:44:26.672Z,23.81
2022-09-07T19:46:53.668Z,23.80
2022-09-07T19:49:20.775Z,23.74
2022-09-07T19:51:51.116Z,23.67
2022-09-07T19:54:18.902Z,23.60
2022-09-07T19:56:46.415Z,23.56
2022-09-07T19:59:14.445Z,23.52
2022-09-07T20:01:47.261Z,23.52
2022-09-07T20:04:20.332Z,23.42
2022-09-07T20:06:50.113Z,23.41
2022-09-07T20:09:19.826Z,23.38
2022-09-07T20:11:47.919Z,23.36
2022-09-07T20:14:16.503Z,23.32
2022-09-07T20:16:43.914Z,23.29
2022-09-07T20:19:15.175Z,23.26
2022-09-07T20:21:42.713Z,23.21
2022-09-07T20:24:12.452Z,23.20
2022-09-07T20:26:39.705Z,23.14
2022-09-07T20:31:54.200Z,23.07
2022-09-07T20:34:21.290Z,23.04
2022-09-07T20:36:52.364Z,23.02
2022-09-07T20:39:20.707Z,22.98
2022-09-07T20:41:48.082Z,22.95
2022-09-07T20:44:15.898Z,22.88
2022-09-07T20:46:43.238Z,22.88
2022-09-07T20:49:10.871Z,22.89
2022-09-07T20:51:38.663Z,22.89
2022-09-07T20:54:07.030Z,22.86
2022-09-07T20:56:34.017Z,22.88
2022-09-07T20:59:02.517Z,22.85
2022-09-07T21:01:32.367Z,22.80
2022-09-07T21:04:00.732Z,22.79
2022-09-07T21:06:29.541Z,22.73
2022-09-07T21:08:57.322Z,22.70
2022-09-07T21:11:28.029Z,22.70
2022-09-07T21:14:01.721Z,22.72
2022-09-07T21:16:29.544Z,22.70
2022-09-07T21:18:59.481Z,22.73
2022-09-07T21:21:28.632Z,22.68
2022-09-07T21:24:01.729Z,22.73
2022-09-07T21:26:29.793Z,22.73
2022-09-07T21:29:02.423Z,22.72
2022-09-07T21:31:31.420Z,22.68
2022-09-07T21:34:00.717Z,22.66
2022-09-07T21:36:28.948Z,22.64
2022-09-07T21:38:55.921Z,22.64
2022-09-07T21:41:24.929Z,22.60
2022-09-07T21:44:00.118Z,22.63
2022-09-07T21:46:29.313Z,22.62
2022-09-07T21:48:58.247Z,22.58
2022-09-07T21:51:27.485Z,22.56
2022-09-07T21:54:00.098Z,22.56
2022-09-07T21:56:29.474Z,22.53
2022-09-07T21:59:01.614Z,22.53
2022-09-07T22:01:30.399Z,22.54
2022-09-07T22:04:03.393Z,22.50
2022-09-07T22:06:32.506Z,22.48
2022-09-07T22:09:00.712Z,22.45
2022-09-07T22:11:29.023Z,22.40
2022-09-07T22:13:58.713Z,22.39
2022-09-07T22:16:26.025Z,22.42
2022-09-07T22:18:53.600Z,22.40
2022-09-07T22:21:27.169Z,22.43
2022-09-07T22:24:00.694Z,22.43
2022-09-07T22:26:31.493Z,22.45
2022-09-07T22:28:58.773Z,22.45
2022-09-07T22:31:37.460Z,22.44
2022-09-07T22:34:08.495Z,22.44
2022-09-07T22:36:42.308Z,22.43
2022-09-07T22:39:15.819Z,22.42
2022-09-07T22:41:44.145Z,22.38
2022-09-07T22:44:16.985Z,22.37
2022-09-07T22:46:46.923Z,22.32
2022-09-07T22:49:16.269Z,22.28
2022-09-07T22:51:44.669Z,22.25
2022-09-07T22:54:12.289Z,22.24
2022-09-07T22:56:39.980Z,22.24
2022-09-07T22:59:09.080Z,22.23
2022-09-07T23:01:36.992Z,22.20
2022-09-07T23:04:05.448Z,22.20
2022-09-07T23:06:36.617Z,22.20
2022-09-07T23:09:13.842Z,22.24
2022-09-07T23:11:41.386Z,22.16
2022-09-07T23:14:17.182Z,22.13
2022-09-07T23:16:45.105Z,22.10
2022-09-07T23:19:17.630Z,22.08
2022-09-07T23:21:44.966Z,22.04
2022-09-07T23:24:15.009Z,22.05
2022-09-07T23:26:42.193Z,22.02
2022-09-07T23:29:12.775Z,22.01
2022-09-07T23:31:42.369Z,21.98
2022-09-07T23:34:09.529Z,21.99
2022-09-07T23:36:37.530Z,21.96
2022-09-07T23:39:05.001Z,21.95
2022-09-07T23:41:31.970Z,21.93
2022-09-07T23:43:59.251Z,21.92
2022-09-07T23:46:26.334Z,21.92
2022-09-07T23:48:53.508Z,21.94
2022-09-07T23:51:24.147Z,21.91
2022-09-07T23:53:52.739Z,21.90
2022-09-07T23:56:21.599Z,21.89
2022-09-07T23:58:48.813Z,21.88
